sensor_id;sensor_type;location;lat;lon;timestamp;P1;durP1;ratioP1;P2;durP2;ratioP2
17866;SDS011;9059;49.934;8.650;2023-08-08T00:00:54;7.38;;;1.08;;
17866;SDS011;9059;49.934;8.650;2023-08-08T00:10:57;2.72;;;1.40;;
17866;SDS011;9059;49.934;8.650;2023-08-08T00:21:01;1.95;;;1.00;;
17866;SDS011;9059;49.934;8.650;2023-08-08T00:31:04;2.95;;;1.00;;
17866;SDS011;9059;49.934;8.650;2023-08-08T00:41:08;2.60;;;1.30;;
17866;SDS011;9059;49.934;8.650;2023-08-08T00:51:11;3.85;;;1.10;;
17866;SDS011;9059;49.934;8.650;2023-08-08T01:01:15;1.60;;;0.98;;
17866;SDS011;9059;49.934;8.650;2023-08-08T01:11:19;2.35;;;0.95;;
17866;SDS011;9059;49.934;8.650;2023-08-08T01:21:24;1.35;;;0.70;;
17866;SDS011;9059;49.934;8.650;2023-08-08T01:31:28;4.38;;;1.08;;
17866;SDS011;9059;49.934;8.650;2023-08-08T01:41:31;4.15;;;1.00;;
17866;SDS011;9059;49.934;8.650;2023-08-08T01:51:36;3.05;;;1.05;;
17866;SDS011;9059;49.934;8.650;2023-08-08T02:01:39;1.80;;;0.80;;
17866;SDS011;9059;49.934;8.650;2023-08-08T02:11:43;2.95;;;0.88;;
17866;SDS011;9059;49.934;8.650;2023-08-08T02:21:46;1.60;;;0.98;;
17866;SDS011;9059;49.934;8.650;2023-08-08T02:31:50;7.35;;;1.40;;
17866;SDS011;9059;49.934;8.650;2023-08-08T02:41:53;3.20;;;1.08;;
17866;SDS011;9059;49.934;8.650;2023-08-08T02:51:58;1.83;;;0.73;;
17866;SDS011;9059;49.934;8.650;2023-08-08T03:02:01;1.30;;;0.80;;
17866;SDS011;9059;49.934;8.650;2023-08-08T03:12:06;1.10;;;0.70;;
17866;SDS011;9059;49.934;8.650;2023-08-08T03:22:10;4.18;;;1.05;;
17866;SDS011;9059;49.934;8.650;2023-08-08T03:32:14;3.30;;;1.02;;
17866;SDS011;9059;49.934;8.650;2023-08-08T03:42:17;5.05;;;0.80;;
17866;SDS011;9059;49.934;8.650;2023-08-08T03:52:21;1.30;;;0.70;;
17866;SDS011;9059;49.934;8.650;2023-08-08T04:02:24;2.33;;;0.80;;
17866;SDS011;9059;49.934;8.650;2023-08-08T04:12:30;5.57;;;1.00;;
17866;SDS011;9059;49.934;8.650;2023-08-08T04:22:34;2.45;;;0.85;;
17866;SDS011;9059;49.934;8.650;2023-08-08T04:32:38;1.65;;;0.80;;
17866;SDS011;9059;49.934;8.650;2023-08-08T04:42:41;4.82;;;0.95;;
17866;SDS011;9059;49.934;8.650;2023-08-08T04:52:45;2.45;;;1.08;;
17866;SDS011;9059;49.934;8.650;2023-08-08T05:02:48;2.33;;;1.00;;
17866;SDS011;9059;49.934;8.650;2023-08-08T05:12:55;1.33;;;0.82;;
17866;SDS011;9059;49.934;8.650;2023-08-08T05:22:58;1.75;;;1.00;;
17866;SDS011;9059;49.934;8.650;2023-08-08T05:33:02;2.65;;;0.70;;
17866;SDS011;9059;49.934;8.650;2023-08-08T05:43:05;1.70;;;0.82;;
17866;SDS011;9059;49.934;8.650;2023-08-08T05:53:09;1.77;;;0.98;;
17866;SDS011;9059;49.934;8.650;2023-08-08T06:03:12;3.40;;;0.88;;
17866;SDS011;9059;49.934;8.650;2023-08-08T06:13:16;3.10;;;0.55;;
17866;SDS011;9059;49.934;8.650;2023-08-08T06:23:19;1.60;;;0.80;;
17866;SDS011;9059;49.934;8.650;2023-08-08T06:33:23;3.42;;;0.98;;
17866;SDS011;9059;49.934;8.650;2023-08-08T06:43:26;3.15;;;0.70;;
17866;SDS011;9059;49.934;8.650;2023-08-08T06:53:30;2.05;;;0.80;;
17866;SDS011;9059;49.934;8.650;2023-08-08T07:03:33;8.18;;;0.82;;
17866;SDS011;9059;49.934;8.650;2023-08-08T07:13:38;2.85;;;0.70;;
17866;SDS011;9059;49.934;8.650;2023-08-08T07:23:40;1.50;;;0.80;;
17866;SDS011;9059;49.934;8.650;2023-08-08T07:33:45;7.13;;;1.05;;
17866;SDS011;9059;49.934;8.650;2023-08-08T07:43:47;1.73;;;0.65;;
17866;SDS011;9059;49.934;8.650;2023-08-08T07:53:51;1.55;;;0.60;;
17866;SDS011;9059;49.934;8.650;2023-08-08T08:03:54;1.02;;;0.65;;
17866;SDS011;9059;49.934;8.650;2023-08-08T08:13:59;0.82;;;0.60;;
17866;SDS011;9059;49.934;8.650;2023-08-08T08:24:03;0.90;;;0.50;;
17866;SDS011;9059;49.934;8.650;2023-08-08T08:34:08;3.85;;;0.98;;
17866;SDS011;9059;49.934;8.650;2023-08-08T08:44:11;1.00;;;0.50;;
17866;SDS011;9059;49.934;8.650;2023-08-08T08:54:15;1.58;;;0.40;;
17866;SDS011;9059;49.934;8.650;2023-08-08T09:04:20;1.05;;;0.50;;
17866;SDS011;9059;49.934;8.650;2023-08-08T09:14:25;2.50;;;0.63;;
17866;SDS011;9059;49.934;8.650;2023-08-08T09:24:28;1.42;;;0.70;;
17866;SDS011;9059;49.934;8.650;2023-08-08T09:34:34;1.83;;;0.60;;
17866;SDS011;9059;49.934;8.650;2023-08-08T09:44:37;2.42;;;0.70;;
17866;SDS011;9059;49.934;8.650;2023-08-08T09:54:42;2.38;;;0.70;;
17866;SDS011;9059;49.934;8.650;2023-08-08T10:04:45;2.42;;;0.80;;
17866;SDS011;9059;49.934;8.650;2023-08-08T10:14:49;2.70;;;0.70;;
17866;SDS011;9059;49.934;8.650;2023-08-08T10:24:53;1.27;;;0.50;;
17866;SDS011;9059;49.934;8.650;2023-08-08T10:34:57;2.20;;;0.82;;
17866;SDS011;9059;49.934;8.650;2023-08-08T10:45:08;1.85;;;0.63;;
17866;SDS011;9059;49.934;8.650;2023-08-08T10:55:19;2.78;;;0.55;;
17866;SDS011;9059;49.934;8.650;2023-08-08T11:05:23;7.47;;;0.85;;
17866;SDS011;9059;49.934;8.650;2023-08-08T11:15:29;1.35;;;0.60;;
17866;SDS011;9059;49.934;8.650;2023-08-08T11:25:32;1.65;;;0.95;;
17866;SDS011;9059;49.934;8.650;2023-08-08T11:35:37;3.03;;;0.60;;
17866;SDS011;9059;49.934;8.650;2023-08-08T11:45:48;1.02;;;0.85;;
17866;SDS011;9059;49.934;8.650;2023-08-08T11:55:54;1.73;;;0.60;;
17866;SDS011;9059;49.934;8.650;2023-08-08T12:05:57;2.45;;;0.70;;
17866;SDS011;9059;49.934;8.650;2023-08-08T12:16:01;1.00;;;0.65;;
17866;SDS011;9059;49.934;8.650;2023-08-08T12:26:18;10.07;;;1.05;;
17866;SDS011;9059;49.934;8.650;2023-08-08T12:36:22;3.58;;;0.90;;
17866;SDS011;9059;49.934;8.650;2023-08-08T12:46:25;2.85;;;0.90;;
17866;SDS011;9059;49.934;8.650;2023-08-08T12:56:29;2.40;;;0.90;;
17866;SDS011;9059;49.934;8.650;2023-08-08T13:06:32;1.83;;;0.45;;
17866;SDS011;9059;49.934;8.650;2023-08-08T13:16:36;2.08;;;0.80;;
17866;SDS011;9059;49.934;8.650;2023-08-08T13:26:39;2.55;;;0.70;;
17866;SDS011;9059;49.934;8.650;2023-08-08T13:36:46;1.83;;;0.80;;
17866;SDS011;9059;49.934;8.650;2023-08-08T13:46:49;0.57;;;0.47;;
17866;SDS011;9059;49.934;8.650;2023-08-08T13:56:54;1.95;;;0.70;;
17866;SDS011;9059;49.934;8.650;2023-08-08T14:06:57;2.10;;;0.70;;
17866;SDS011;9059;49.934;8.650;2023-08-08T14:17:01;0.85;;;0.60;;
17866;SDS011;9059;49.934;8.650;2023-08-08T14:27:04;1.45;;;0.80;;
17866;SDS011;9059;49.934;8.650;2023-08-08T14:37:08;4.20;;;0.70;;
17866;SDS011;9059;49.934;8.650;2023-08-08T14:47:12;2.20;;;0.43;;
17866;SDS011;9059;49.934;8.650;2023-08-08T14:57:16;3.05;;;0.85;;
17866;SDS011;9059;49.934;8.650;2023-08-08T15:07:19;0.63;;;0.50;;
17866;SDS011;9059;49.934;8.650;2023-08-08T15:17:23;1.33;;;0.65;;
17866;SDS011;9059;49.934;8.650;2023-08-08T15:27:28;10.00;;;0.50;;
17866;SDS011;9059;49.934;8.650;2023-08-08T15:37:32;2.08;;;0.68;;
17866;SDS011;9059;49.934;8.650;2023-08-08T15:47:35;2.70;;;0.65;;
17866;SDS011;9059;49.934;8.650;2023-08-08T15:57:39;4.05;;;0.65;;
17866;SDS011;9059;49.934;8.650;2023-08-08T16:07:42;2.88;;;0.70;;
17866;SDS011;9059;49.934;8.650;2023-08-08T16:17:46;3.33;;;0.80;;
17866;SDS011;9059;49.934;8.650;2023-08-08T16:27:49;0.70;;;0.60;;
17866;SDS011;9059;49.934;8.650;2023-08-08T16:37:54;2.40;;;0.93;;
17866;SDS011;9059;49.934;8.650;2023-08-08T16:47:57;1.42;;;0.73;;
17866;SDS011;9059;49.934;8.650;2023-08-08T16:58:01;2.25;;;0.73;;
17866;SDS011;9059;49.934;8.650;2023-08-08T17:08:04;1.48;;;0.80;;
17866;SDS011;9059;49.934;8.650;2023-08-08T17:18:08;2.55;;;1.00;;
17866;SDS011;9059;49.934;8.650;2023-08-08T17:28:11;6.00;;;1.00;;
17866;SDS011;9059;49.934;8.650;2023-08-08T17:38:15;1.90;;;0.85;;
17866;SDS011;9059;49.934;8.650;2023-08-08T17:48:18;2.03;;;0.85;;
17866;SDS011;9059;49.934;8.650;2023-08-08T17:58:22;3.50;;;1.13;;
17866;SDS011;9059;49.934;8.650;2023-08-08T18:08:26;1.73;;;1.02;;
17866;SDS011;9059;49.934;8.650;2023-08-08T18:18:30;4.78;;;0.93;;
17866;SDS011;9059;49.934;8.650;2023-08-08T18:28:34;3.13;;;1.05;;
17866;SDS011;9059;49.934;8.650;2023-08-08T18:38:38;2.05;;;0.90;;
17866;SDS011;9059;49.934;8.650;2023-08-08T18:48:40;2.83;;;1.10;;
17866;SDS011;9059;49.934;8.650;2023-08-08T18:58:45;3.33;;;1.40;;
17866;SDS011;9059;49.934;8.650;2023-08-08T19:08:47;2.08;;;1.27;;
17866;SDS011;9059;49.934;8.650;2023-08-08T19:18:52;6.35;;;1.17;;
17866;SDS011;9059;49.934;8.650;2023-08-08T19:28:55;5.63;;;1.05;;
17866;SDS011;9059;49.934;8.650;2023-08-08T19:38:59;2.63;;;1.10;;
17866;SDS011;9059;49.934;8.650;2023-08-08T19:49:02;4.05;;;1.30;;
17866;SDS011;9059;49.934;8.650;2023-08-08T19:59:06;6.20;;;1.45;;
17866;SDS011;9059;49.934;8.650;2023-08-08T20:09:09;13.73;;;1.65;;
17866;SDS011;9059;49.934;8.650;2023-08-08T20:19:14;4.70;;;1.13;;
17866;SDS011;9059;49.934;8.650;2023-08-08T20:29:17;3.63;;;1.00;;
17866;SDS011;9059;49.934;8.650;2023-08-08T20:39:21;3.25;;;0.90;;
17866;SDS011;9059;49.934;8.650;2023-08-08T20:49:24;2.80;;;1.10;;
17866;SDS011;9059;49.934;8.650;2023-08-08T20:59:28;1.33;;;0.82;;
17866;SDS011;9059;49.934;8.650;2023-08-08T21:09:32;3.53;;;0.95;;
17866;SDS011;9059;49.934;8.650;2023-08-08T21:19:36;2.15;;;0.80;;
17866;SDS011;9059;49.934;8.650;2023-08-08T21:29:39;3.20;;;1.10;;
17866;SDS011;9059;49.934;8.650;2023-08-08T21:39:44;3.03;;;0.90;;
17866;SDS011;9059;49.934;8.650;2023-08-08T21:49:47;1.67;;;0.70;;
17866;SDS011;9059;49.934;8.650;2023-08-08T21:59:51;1.65;;;0.68;;
17866;SDS011;9059;49.934;8.650;2023-08-08T22:09:54;2.50;;;0.95;;
17866;SDS011;9059;49.934;8.650;2023-08-08T22:19:58;7.35;;;1.00;;
17866;SDS011;9059;49.934;8.650;2023-08-08T22:30:01;4.32;;;1.08;;
17866;SDS011;9059;49.934;8.650;2023-08-08T22:40:06;3.63;;;1.27;;
17866;SDS011;9059;49.934;8.650;2023-08-08T22:50:11;3.65;;;1.23;;
17866;SDS011;9059;49.934;8.650;2023-08-08T23:00:15;4.43;;;1.40;;
17866;SDS011;9059;49.934;8.650;2023-08-08T23:10:18;5.15;;;1.45;;
17866;SDS011;9059;49.934;8.650;2023-08-08T23:20:22;1.67;;;1.20;;
17866;SDS011;9059;49.934;8.650;2023-08-08T23:30:25;2.33;;;1.20;;
17866;SDS011;9059;49.934;8.650;2023-08-08T23:40:29;2.60;;;1.23;;
17866;SDS011;9059;49.934;8.650;2023-08-08T23:50:33;2.60;;;1.30;;
